Archival Weather

Granbury Rgnl

Granbury, Texas (KGDJ)

Report from: Monday, January 29, 2024 2:15 AM UTC
Current time: Tuesday, June 18, 2024 12:38 PM UTC

Current weather – Weather history – Daily summaries
Weather forecast

Temperature8.1°C (46.6°F)
Dew point2.1°C (35.8°F)
Winds Calm
Visibility10 mi. (16.1 km)
Clouds Sky clear
Altimeter30.36 in.Hg (1028 mB)
Relative humidity66 %
Density altitude-1,224 ft. (-373 m)
Remarks Fully automated report
Automated weather observing station with precipitation discriminator
Flight conditions Visual Meteorological Conditions
Raw dataKGDJ 290215Z AUTO 00000KT 10SM CLR 08/02 A3036 RMK AO2 T00810021
An error has occurred. This application may no longer respond until reloaded. Reload 🗙